罗盘
风向 的 风向 的 风向 到 风向 330° Mimizan Airport 8/26
风: 6 kt, 2 beaufort

2 kt

6 kt
改变
0 1.000 2.000 3.000 4.000 5.000
SCT 2.300 ft
OVC 3.400 ft
METAR LFBC 182030Z AUTO 33006KT 300V360 9999 SCT023 OVC034 20/16 Q1020

METAR Mimizan Airport - LFCZ

Mimizan Airport是Mimizan,法国中的小机场。 该机场有一条跑道: 8/26. 该领域的国际民航组织标志是LFCZ.

这份报告是针对2022年8月18日 22:30, 当地时间在Cazaux (BA 120) Air Base进行的。

机场观察

风向为330°,速度为6 kt。 风向在300°和360°之间变化。

可见度为10 km 或者更多。

有疏云,零星散落的云朵在2.300 ft的高度 和 乌云密布在3.400 ft的高度。 破损或更高的上限为3.400 ft。

温度和风寒是20 °C。 露点为16 °C,相对湿度为78%。 海平面上的气压为1020 hPa (QNH)。

白天

今天,太阳从07:11升起,在21:05降落。 这适用于Mimizan Airport,世界夏令时可能有所不同。 当地时间与世界标准时间之间的时差为+2 小时。 夏令时目前正在进行中。

公司介绍

在这个机场,你可以找到飞行俱乐部 和 跳伞中心。 这个机场上的公司有Aéroclub de Mimizan 和 OJB Parachutisme。

体会

到Vliegles.nl去找飞行课程,跳伞和其他飞行体验。 浏览页面,了解Mimizan Airport附近所有可用的活动。 你也可以使用搜索功能来寻找你所在地附近的特定飞行课程、跳伞或其他飞行体验。

跑道

Id 标题 侧风 逆风 侧风 %
8/26 082°-262° 6 kt 2 kt 93 %

逆风成分最大的方向会被突出显示,并用于横风计算。 这并不一定意味着这个方向在使用。

乌云

2.300 ft SCT 疏云,零星散落的云朵
3.400 ft OVC 乌云密布

温度 & 天气

温度 20 °C
露点 16 °C
相对湿度 78%
Kp-index 3  

白天

日出
07:10
中午
14:08
日落
21:05

小工具

你想在你的网站上有一个关于Mimizan Airport的当前航空天气(METAR)的小部件吗?

</> 显示HTML代码

我们和第三方通过cookies跟踪您在我们网站上的上网行为。如果您继续,我们认为您同意我们的cookie政策。 了解更多